sensor_id;sensor_type;location;lat;lon;timestamp;P1;durP1;ratioP1;P2;durP2;ratioP2
3177;SDS011;38141;42.666;23.344;2023-12-20T00:01:07;54.10;;;33.27;;
3177;SDS011;38141;42.666;23.344;2023-12-20T00:03:34;86.57;;;45.97;;
3177;SDS011;38141;42.666;23.344;2023-12-20T00:06:01;77.53;;;42.50;;
3177;SDS011;38141;42.666;23.344;2023-12-20T00:08:28;92.77;;;43.70;;
3177;SDS011;38141;42.666;23.344;2023-12-20T00:10:55;95.90;;;48.00;;
3177;SDS011;38141;42.666;23.344;2023-12-20T00:13:23;88.47;;;48.00;;
3177;SDS011;38141;42.666;23.344;2023-12-20T00:15:50;91.20;;;47.57;;
3177;SDS011;38141;42.666;23.344;2023-12-20T00:18:17;83.33;;;45.20;;
3177;SDS011;38141;42.666;23.344;2023-12-20T00:20:44;81.70;;;44.03;;
3177;SDS011;38141;42.666;23.344;2023-12-20T00:23:11;87.10;;;47.63;;
3177;SDS011;38141;42.666;23.344;2023-12-20T00:25:38;82.33;;;45.33;;
3177;SDS011;38141;42.666;23.344;2023-12-20T00:28:05;77.93;;;40.77;;
3177;SDS011;38141;42.666;23.344;2023-12-20T00:30:34;89.20;;;46.80;;
3177;SDS011;38141;42.666;23.344;2023-12-20T00:33:01;95.77;;;49.10;;
3177;SDS011;38141;42.666;23.344;2023-12-20T00:35:28;80.13;;;43.70;;
3177;SDS011;38141;42.666;23.344;2023-12-20T00:37:55;74.03;;;37.53;;
3177;SDS011;38141;42.666;23.344;2023-12-20T00:40:22;74.00;;;40.20;;
3177;SDS011;38141;42.666;23.344;2023-12-20T00:42:50;82.77;;;44.97;;
3177;SDS011;38141;42.666;23.344;2023-12-20T00:45:17;89.87;;;46.43;;
3177;SDS011;38141;42.666;23.344;2023-12-20T00:47:45;72.03;;;38.20;;
3177;SDS011;38141;42.666;23.344;2023-12-20T00:50:12;69.87;;;37.10;;
3177;SDS011;38141;42.666;23.344;2023-12-20T00:52:39;77.27;;;42.53;;
3177;SDS011;38141;42.666;23.344;2023-12-20T00:55:06;84.93;;;41.47;;
3177;SDS011;38141;42.666;23.344;2023-12-20T00:57:34;81.50;;;42.20;;
3177;SDS011;38141;42.666;23.344;2023-12-20T01:00:01;76.73;;;43.23;;
3177;SDS011;38141;42.666;23.344;2023-12-20T01:02:28;72.67;;;40.77;;
3177;SDS011;38141;42.666;23.344;2023-12-20T01:04:56;71.63;;;38.10;;
3177;SDS011;38141;42.666;23.344;2023-12-20T01:07:23;73.67;;;38.37;;
3177;SDS011;38141;42.666;23.344;2023-12-20T01:09:50;69.77;;;38.30;;
3177;SDS011;38141;42.666;23.344;2023-12-20T01:12:17;74.07;;;39.60;;
3177;SDS011;38141;42.666;23.344;2023-12-20T01:14:45;71.27;;;39.13;;
3177;SDS011;38141;42.666;23.344;2023-12-20T01:17:12;71.53;;;40.73;;
3177;SDS011;38141;42.666;23.344;2023-12-20T01:19:39;77.57;;;41.17;;
3177;SDS011;38141;42.666;23.344;2023-12-20T01:22:08;73.07;;;39.57;;
3177;SDS011;38141;42.666;23.344;2023-12-20T01:24:35;69.13;;;39.50;;
3177;SDS011;38141;42.666;23.344;2023-12-20T01:27:02;66.93;;;37.70;;
3177;SDS011;38141;42.666;23.344;2023-12-20T01:29:29;64.47;;;36.40;;
3177;SDS011;38141;42.666;23.344;2023-12-20T01:31:56;68.23;;;38.93;;
3177;SDS011;38141;42.666;23.344;2023-12-20T01:34:23;67.63;;;38.90;;
3177;SDS011;38141;42.666;23.344;2023-12-20T01:36:49;68.40;;;37.43;;
3177;SDS011;38141;42.666;23.344;2023-12-20T01:39:18;73.40;;;38.30;;
3177;SDS011;38141;42.666;23.344;2023-12-20T01:41:45;78.10;;;42.77;;
3177;SDS011;38141;42.666;23.344;2023-12-20T01:44:12;79.73;;;41.97;;
3177;SDS011;38141;42.666;23.344;2023-12-20T01:46:39;75.00;;;42.20;;
3177;SDS011;38141;42.666;23.344;2023-12-20T01:49:06;87.43;;;45.63;;
3177;SDS011;38141;42.666;23.344;2023-12-20T01:51:34;72.23;;;41.47;;
3177;SDS011;38141;42.666;23.344;2023-12-20T01:54:02;75.03;;;41.37;;
3177;SDS011;38141;42.666;23.344;2023-12-20T01:56:31;76.60;;;41.20;;
3177;SDS011;38141;42.666;23.344;2023-12-20T01:58:59;80.30;;;43.00;;
3177;SDS011;38141;42.666;23.344;2023-12-20T02:01:27;75.60;;;42.10;;
3177;SDS011;38141;42.666;23.344;2023-12-20T02:03:55;67.57;;;38.83;;
3177;SDS011;38141;42.666;23.344;2023-12-20T02:06:22;76.77;;;41.90;;
3177;SDS011;38141;42.666;23.344;2023-12-20T02:08:51;67.00;;;40.40;;
3177;SDS011;38141;42.666;23.344;2023-12-20T02:11:17;81.13;;;39.40;;
3177;SDS011;38141;42.666;23.344;2023-12-20T02:13:46;72.83;;;38.67;;
3177;SDS011;38141;42.666;23.344;2023-12-20T02:16:13;71.83;;;40.40;;
3177;SDS011;38141;42.666;23.344;2023-12-20T02:18:40;75.27;;;41.47;;
3177;SDS011;38141;42.666;23.344;2023-12-20T02:21:09;73.60;;;40.50;;
3177;SDS011;38141;42.666;23.344;2023-12-20T02:23:38;80.37;;;42.10;;
3177;SDS011;38141;42.666;23.344;2023-12-20T02:26:04;74.20;;;41.10;;
3177;SDS011;38141;42.666;23.344;2023-12-20T02:28:32;73.07;;;39.10;;
3177;SDS011;38141;42.666;23.344;2023-12-20T02:30:59;72.10;;;42.40;;
3177;SDS011;38141;42.666;23.344;2023-12-20T02:33:26;75.87;;;39.67;;
3177;SDS011;38141;42.666;23.344;2023-12-20T02:35:53;70.67;;;39.60;;
3177;SDS011;38141;42.666;23.344;2023-12-20T02:38:20;77.53;;;42.60;;
3177;SDS011;38141;42.666;23.344;2023-12-20T02:40:49;79.00;;;41.57;;
3177;SDS011;38141;42.666;23.344;2023-12-20T02:43:16;81.67;;;41.30;;
3177;SDS011;38141;42.666;23.344;2023-12-20T02:45:43;77.40;;;40.63;;
3177;SDS011;38141;42.666;23.344;2023-12-20T02:48:10;74.20;;;40.27;;
3177;SDS011;38141;42.666;23.344;2023-12-20T02:50:37;79.07;;;40.87;;
3177;SDS011;38141;42.666;23.344;2023-12-20T02:53:04;80.50;;;39.70;;
3177;SDS011;38141;42.666;23.344;2023-12-20T02:55:31;76.60;;;40.30;;
3177;SDS011;38141;42.666;23.344;2023-12-20T02:57:59;80.90;;;40.80;;
3177;SDS011;38141;42.666;23.344;2023-12-20T03:00:26;83.70;;;42.80;;
3177;SDS011;38141;42.666;23.344;2023-12-20T03:02:53;70.60;;;39.10;;
3177;SDS011;38141;42.666;23.344;2023-12-20T03:05:20;72.73;;;39.60;;
3177;SDS011;38141;42.666;23.344;2023-12-20T03:07:47;88.07;;;46.90;;
3177;SDS011;38141;42.666;23.344;2023-12-20T03:10:14;98.20;;;50.53;;
3177;SDS011;38141;42.666;23.344;2023-12-20T03:12:41;103.77;;;52.77;;
3177;SDS011;38141;42.666;23.344;2023-12-20T03:15:10;108.13;;;51.80;;
3177;SDS011;38141;42.666;23.344;2023-12-20T03:17:37;97.27;;;50.70;;
3177;SDS011;38141;42.666;23.344;2023-12-20T03:20:04;99.10;;;51.97;;
3177;SDS011;38141;42.666;23.344;2023-12-20T03:22:32;97.37;;;50.73;;
3177;SDS011;38141;42.666;23.344;2023-12-20T03:25:00;104.30;;;54.03;;
3177;SDS011;38141;42.666;23.344;2023-12-20T03:27:27;138.03;;;69.43;;
3177;SDS011;38141;42.666;23.344;2023-12-20T03:29:54;127.33;;;62.27;;
3177;SDS011;38141;42.666;23.344;2023-12-20T03:32:22;178.27;;;83.67;;
3177;SDS011;38141;42.666;23.344;2023-12-20T03:34:49;184.50;;;88.17;;
3177;SDS011;38141;42.666;23.344;2023-12-20T03:37:16;166.30;;;79.33;;
3177;SDS011;38141;42.666;23.344;2023-12-20T03:39:43;161.23;;;78.50;;
3177;SDS011;38141;42.666;23.344;2023-12-20T03:42:10;152.60;;;73.60;;
3177;SDS011;38141;42.666;23.344;2023-12-20T03:44:38;150.23;;;75.10;;
3177;SDS011;38141;42.666;23.344;2023-12-20T03:47:05;145.93;;;74.40;;
3177;SDS011;38141;42.666;23.344;2023-12-20T03:49:33;144.27;;;68.20;;
3177;SDS011;38141;42.666;23.344;2023-12-20T03:52:02;143.67;;;68.37;;
3177;SDS011;38141;42.666;23.344;2023-12-20T03:54:29;145.67;;;70.73;;
3177;SDS011;38141;42.666;23.344;2023-12-20T03:56:56;139.67;;;66.80;;
3177;SDS011;38141;42.666;23.344;2023-12-20T03:59:23;129.37;;;65.07;;
3177;SDS011;38141;42.666;23.344;2023-12-20T04:01:50;133.90;;;64.20;;
3177;SDS011;38141;42.666;23.344;2023-12-20T04:04:17;133.57;;;62.27;;
3177;SDS011;38141;42.666;23.344;2023-12-20T04:06:46;116.43;;;61.77;;
3177;SDS011;38141;42.666;23.344;2023-12-20T04:09:12;137.20;;;63.10;;
3177;SDS011;38141;42.666;23.344;2023-12-20T04:11:39;123.73;;;64.10;;
3177;SDS011;38141;42.666;23.344;2023-12-20T04:14:06;122.63;;;61.20;;
3177;SDS011;38141;42.666;23.344;2023-12-20T04:16:34;125.10;;;61.07;;
3177;SDS011;38141;42.666;23.344;2023-12-20T04:19:01;111.03;;;59.73;;
3177;SDS011;38141;42.666;23.344;2023-12-20T04:21:28;129.33;;;59.77;;
3177;SDS011;38141;42.666;23.344;2023-12-20T04:24:22;121.73;;;60.60;;
3177;SDS011;38141;42.666;23.344;2023-12-20T04:26:49;118.63;;;60.20;;
3177;SDS011;38141;42.666;23.344;2023-12-20T04:29:16;122.87;;;59.60;;
3177;SDS011;38141;42.666;23.344;2023-12-20T04:31:43;123.80;;;62.10;;
3177;SDS011;38141;42.666;23.344;2023-12-20T04:34:10;122.77;;;59.63;;
3177;SDS011;38141;42.666;23.344;2023-12-20T04:36:37;129.13;;;62.37;;
3177;SDS011;38141;42.666;23.344;2023-12-20T04:39:04;124.10;;;63.03;;
3177;SDS011;38141;42.666;23.344;2023-12-20T04:41:33;125.83;;;61.90;;
3177;SDS011;38141;42.666;23.344;2023-12-20T04:44:00;134.83;;;63.87;;
3177;SDS011;38141;42.666;23.344;2023-12-20T04:46:27;125.30;;;60.07;;
3177;SDS011;38141;42.666;23.344;2023-12-20T04:48:54;128.60;;;65.50;;
3177;SDS011;38141;42.666;23.344;2023-12-20T04:51:21;127.20;;;62.23;;
3177;SDS011;38141;42.666;23.344;2023-12-20T04:53:48;140.43;;;67.60;;
3177;SDS011;38141;42.666;23.344;2023-12-20T04:56:15;122.60;;;62.27;;
3177;SDS011;38141;42.666;23.344;2023-12-20T04:58:43;164.40;;;78.07;;
3177;SDS011;38141;42.666;23.344;2023-12-20T05:01:10;174.10;;;80.20;;
3177;SDS011;38141;42.666;23.344;2023-12-20T05:03:38;129.07;;;64.83;;
3177;SDS011;38141;42.666;23.344;2023-12-20T05:06:05;124.73;;;63.20;;
3177;SDS011;38141;42.666;23.344;2023-12-20T05:08:32;138.77;;;64.17;;
3177;SDS011;38141;42.666;23.344;2023-12-20T05:10:59;131.40;;;65.10;;
3177;SDS011;38141;42.666;23.344;2023-12-20T05:13:26;131.63;;;64.93;;
3177;SDS011;38141;42.666;23.344;2023-12-20T05:15:55;122.93;;;62.30;;
3177;SDS011;38141;42.666;23.344;2023-12-20T05:18:22;135.07;;;64.40;;
3177;SDS011;38141;42.666;23.344;2023-12-20T05:20:49;133.73;;;63.10;;
3177;SDS011;38141;42.666;23.344;2023-12-20T05:23:17;139.43;;;65.80;;
3177;SDS011;38141;42.666;23.344;2023-12-20T05:25:45;129.20;;;61.07;;
3177;SDS011;38141;42.666;23.344;2023-12-20T05:28:12;121.63;;;60.80;;
3177;SDS011;38141;42.666;23.344;2023-12-20T05:30:39;118.47;;;56.53;;
3177;SDS011;38141;42.666;23.344;2023-12-20T05:33:08;127.30;;;59.47;;
3177;SDS011;38141;42.666;23.344;2023-12-20T05:35:34;137.70;;;61.30;;
3177;SDS011;38141;42.666;23.344;2023-12-20T05:38:02;129.80;;;56.10;;
3177;SDS011;38141;42.666;23.344;2023-12-20T05:40:29;129.03;;;60.87;;
3177;SDS011;38141;42.666;23.344;2023-12-20T05:42:56;138.17;;;59.10;;
3177;SDS011;38141;42.666;23.344;2023-12-20T05:45:23;126.37;;;58.63;;
3177;SDS011;38141;42.666;23.344;2023-12-20T05:47:50;129.93;;;57.90;;
3177;SDS011;38141;42.666;23.344;2023-12-20T05:50:18;124.93;;;58.00;;
3177;SDS011;38141;42.666;23.344;2023-12-20T05:52:46;124.20;;;55.57;;
3177;SDS011;38141;42.666;23.344;2023-12-20T05:55:13;130.40;;;56.10;;
3177;SDS011;38141;42.666;23.344;2023-12-20T05:57:40;136.10;;;61.50;;
3177;SDS011;38141;42.666;23.344;2023-12-20T06:00:08;130.20;;;57.53;;
3177;SDS011;38141;42.666;23.344;2023-12-20T06:02:36;117.33;;;54.80;;
3177;SDS011;38141;42.666;23.344;2023-12-20T06:05:04;120.73;;;56.30;;
3177;SDS011;38141;42.666;23.344;2023-12-20T06:07:32;119.97;;;55.47;;
3177;SDS011;38141;42.666;23.344;2023-12-20T06:09:59;132.03;;;54.07;;
3177;SDS011;38141;42.666;23.344;2023-12-20T06:12:27;113.23;;;53.80;;
3177;SDS011;38141;42.666;23.344;2023-12-20T06:14:54;106.03;;;49.00;;
3177;SDS011;38141;42.666;23.344;2023-12-20T06:17:21;110.30;;;52.83;;
3177;SDS011;38141;42.666;23.344;2023-12-20T06:19:48;115.03;;;55.07;;
3177;SDS011;38141;42.666;23.344;2023-12-20T06:22:15;125.90;;;55.20;;
3177;SDS011;38141;42.666;23.344;2023-12-20T06:24:43;120.70;;;58.13;;
3177;SDS011;38141;42.666;23.344;2023-12-20T06:27:10;145.73;;;66.00;;
3177;SDS011;38141;42.666;23.344;2023-12-20T06:29:37;131.47;;;61.47;;
3177;SDS011;38141;42.666;23.344;2023-12-20T06:32:06;139.33;;;59.40;;
3177;SDS011;38141;42.666;23.344;2023-12-20T06:34:32;134.30;;;63.00;;
3177;SDS011;38141;42.666;23.344;2023-12-20T06:37:00;136.27;;;60.80;;
3177;SDS011;38141;42.666;23.344;2023-12-20T06:39:27;139.67;;;61.87;;
3177;SDS011;38141;42.666;23.344;2023-12-20T06:41:57;129.50;;;60.90;;
3177;SDS011;38141;42.666;23.344;2023-12-20T06:44:24;141.17;;;63.13;;
3177;SDS011;38141;42.666;23.344;2023-12-20T06:46:51;117.10;;;56.23;;
3177;SDS011;38141;42.666;23.344;2023-12-20T06:49:18;102.33;;;48.03;;
3177;SDS011;38141;42.666;23.344;2023-12-20T06:51:45;96.70;;;48.70;;
3177;SDS011;38141;42.666;23.344;2023-12-20T06:54:12;107.57;;;48.90;;
3177;SDS011;38141;42.666;23.344;2023-12-20T06:56:39;91.43;;;46.33;;
3177;SDS011;38141;42.666;23.344;2023-12-20T06:59:07;114.57;;;53.27;;
3177;SDS011;38141;42.666;23.344;2023-12-20T07:01:34;116.10;;;58.00;;
3177;SDS011;38141;42.666;23.344;2023-12-20T07:04:01;119.83;;;58.20;;
3177;SDS011;38141;42.666;23.344;2023-12-20T07:06:28;111.73;;;56.10;;
3177;SDS011;38141;42.666;23.344;2023-12-20T07:08:55;106.67;;;56.60;;
3177;SDS011;38141;42.666;23.344;2023-12-20T07:11:22;121.00;;;59.50;;
3177;SDS011;38141;42.666;23.344;2023-12-20T07:13:50;134.50;;;62.80;;
3177;SDS011;38141;42.666;23.344;2023-12-20T07:16:18;118.00;;;61.43;;
3177;SDS011;38141;42.666;23.344;2023-12-20T07:18:45;121.63;;;64.47;;
3177;SDS011;38141;42.666;23.344;2023-12-20T07:21:12;152.20;;;66.60;;
3177;SDS011;38141;42.666;23.344;2023-12-20T07:23:39;143.10;;;65.20;;
3177;SDS011;38141;42.666;23.344;2023-12-20T07:26:06;128.73;;;63.30;;
3177;SDS011;38141;42.666;23.344;2023-12-20T07:28:33;121.00;;;63.63;;
3177;SDS011;38141;42.666;23.344;2023-12-20T07:31:00;126.93;;;65.73;;
3177;SDS011;38141;42.666;23.344;2023-12-20T07:33:28;133.73;;;66.30;;
3177;SDS011;38141;42.666;23.344;2023-12-20T07:35:55;125.90;;;65.30;;
3177;SDS011;38141;42.666;23.344;2023-12-20T07:38:22;119.97;;;63.40;;
3177;SDS011;38141;42.666;23.344;2023-12-20T07:40:50;137.87;;;70.13;;
3177;SDS011;38141;42.666;23.344;2023-12-20T07:43:17;127.17;;;65.67;;
3177;SDS011;38141;42.666;23.344;2023-12-20T07:45:44;121.47;;;66.17;;
3177;SDS011;38141;42.666;23.344;2023-12-20T07:48:11;198.20;;;97.63;;
3177;SDS011;38141;42.666;23.344;2023-12-20T07:50:39;121.97;;;65.43;;
3177;SDS011;38141;42.666;23.344;2023-12-20T07:53:07;122.30;;;67.80;;
3177;SDS011;38141;42.666;23.344;2023-12-20T07:55:34;117.50;;;65.90;;
3177;SDS011;38141;42.666;23.344;2023-12-20T07:58:01;114.00;;;64.57;;
3177;SDS011;38141;42.666;23.344;2023-12-20T08:00:30;124.73;;;69.30;;
3177;SDS011;38141;42.666;23.344;2023-12-20T08:02:57;125.17;;;70.17;;
3177;SDS011;38141;42.666;23.344;2023-12-20T08:05:24;114.40;;;64.60;;
3177;SDS011;38141;42.666;23.344;2023-12-20T08:07:52;88.13;;;50.97;;
3177;SDS011;38141;42.666;23.344;2023-12-20T08:10:19;84.37;;;48.20;;
3177;SDS011;38141;42.666;23.344;2023-12-20T08:12:46;81.70;;;47.43;;
3177;SDS011;38141;42.666;23.344;2023-12-20T08:15:13;79.83;;;45.20;;
3177;SDS011;38141;42.666;23.344;2023-12-20T08:17:40;73.93;;;42.00;;
3177;SDS011;38141;42.666;23.344;2023-12-20T08:20:07;73.83;;;43.63;;
3177;SDS011;38141;42.666;23.344;2023-12-20T08:22:35;79.17;;;44.60;;
3177;SDS011;38141;42.666;23.344;2023-12-20T08:25:03;76.27;;;42.37;;
3177;SDS011;38141;42.666;23.344;2023-12-20T08:27:31;74.23;;;42.53;;
3177;SDS011;38141;42.666;23.344;2023-12-20T08:29:59;66.77;;;38.73;;
3177;SDS011;38141;42.666;23.344;2023-12-20T08:32:26;64.33;;;38.67;;
3177;SDS011;38141;42.666;23.344;2023-12-20T08:34:53;66.53;;;39.20;;
3177;SDS011;38141;42.666;23.344;2023-12-20T08:37:20;67.13;;;39.60;;
3177;SDS011;38141;42.666;23.344;2023-12-20T08:39:47;61.97;;;39.50;;
3177;SDS011;38141;42.666;23.344;2023-12-20T08:42:15;64.40;;;37.33;;
3177;SDS011;38141;42.666;23.344;2023-12-20T08:44:43;73.10;;;40.40;;
3177;SDS011;38141;42.666;23.344;2023-12-20T08:47:10;73.43;;;40.10;;
3177;SDS011;38141;42.666;23.344;2023-12-20T08:49:38;69.60;;;38.93;;
3177;SDS011;38141;42.666;23.344;2023-12-20T08:52:05;73.23;;;44.30;;
3177;SDS011;38141;42.666;23.344;2023-12-20T08:54:32;81.07;;;44.20;;
3177;SDS011;38141;42.666;23.344;2023-12-20T08:57:01;72.40;;;38.90;;
3177;SDS011;38141;42.666;23.344;2023-12-20T08:59:30;74.17;;;39.63;;
3177;SDS011;38141;42.666;23.344;2023-12-20T09:01:57;72.57;;;37.47;;
3177;SDS011;38141;42.666;23.344;2023-12-20T09:04:24;77.10;;;39.63;;
3177;SDS011;38141;42.666;23.344;2023-12-20T09:06:51;80.43;;;42.30;;
3177;SDS011;38141;42.666;23.344;2023-12-20T09:09:18;68.73;;;38.30;;
3177;SDS011;38141;42.666;23.344;2023-12-20T09:11:45;81.40;;;39.23;;
3177;SDS011;38141;42.666;23.344;2023-12-20T09:14:15;79.50;;;40.77;;
3177;SDS011;38141;42.666;23.344;2023-12-20T09:16:43;77.73;;;43.13;;
3177;SDS011;38141;42.666;23.344;2023-12-20T09:19:10;82.80;;;43.37;;
3177;SDS011;38141;42.666;23.344;2023-12-20T09:21:38;91.87;;;45.10;;
3177;SDS011;38141;42.666;23.344;2023-12-20T09:24:05;91.90;;;44.70;;
3177;SDS011;38141;42.666;23.344;2023-12-20T09:26:33;84.30;;;41.63;;
3177;SDS011;38141;42.666;23.344;2023-12-20T09:29:00;82.50;;;43.30;;
3177;SDS011;38141;42.666;23.344;2023-12-20T09:31:27;89.57;;;45.63;;
3177;SDS011;38141;42.666;23.344;2023-12-20T09:33:56;83.50;;;43.87;;
3177;SDS011;38141;42.666;23.344;2023-12-20T09:36:23;97.17;;;44.50;;
3177;SDS011;38141;42.666;23.344;2023-12-20T09:38:50;101.80;;;43.57;;
3177;SDS011;38141;42.666;23.344;2023-12-20T09:41:17;103.20;;;44.53;;
3177;SDS011;38141;42.666;23.344;2023-12-20T09:43:44;90.93;;;43.00;;
3177;SDS011;38141;42.666;23.344;2023-12-20T09:46:12;94.10;;;46.00;;
3177;SDS011;38141;42.666;23.344;2023-12-20T09:48:45;104.83;;;47.47;;
3177;SDS011;38141;42.666;23.344;2023-12-20T09:51:13;96.43;;;44.47;;
3177;SDS011;38141;42.666;23.344;2023-12-20T09:53:42;103.20;;;44.80;;
3177;SDS011;38141;42.666;23.344;2023-12-20T09:56:10;106.10;;;46.30;;
3177;SDS011;38141;42.666;23.344;2023-12-20T09:58:39;90.30;;;43.73;;
3177;SDS011;38141;42.666;23.344;2023-12-20T10:01:09;92.87;;;44.60;;
3177;SDS011;38141;42.666;23.344;2023-12-20T10:03:37;93.30;;;46.60;;
3177;SDS011;38141;42.666;23.344;2023-12-20T10:06:07;98.53;;;47.83;;
3177;SDS011;38141;42.666;23.344;2023-12-20T10:08:36;89.23;;;43.37;;
3177;SDS011;38141;42.666;23.344;2023-12-20T10:11:03;86.37;;;41.97;;
3177;SDS011;38141;42.666;23.344;2023-12-20T10:13:31;93.10;;;44.37;;
3177;SDS011;38141;42.666;23.344;2023-12-20T10:16:01;90.90;;;43.77;;
3177;SDS011;38141;42.666;23.344;2023-12-20T10:18:32;92.50;;;44.00;;
3177;SDS011;38141;42.666;23.344;2023-12-20T10:21:00;89.37;;;43.30;;
3177;SDS011;38141;42.666;23.344;2023-12-20T10:23:28;84.83;;;43.73;;
3177;SDS011;38141;42.666;23.344;2023-12-20T10:25:57;80.13;;;41.80;;
3177;SDS011;38141;42.666;23.344;2023-12-20T10:28:28;85.93;;;43.37;;
3177;SDS011;38141;42.666;23.344;2023-12-20T10:30:59;86.90;;;45.00;;
3177;SDS011;38141;42.666;23.344;2023-12-20T10:33:27;87.67;;;43.60;;
3177;SDS011;38141;42.666;23.344;2023-12-20T10:35:55;79.80;;;43.90;;
3177;SDS011;38141;42.666;23.344;2023-12-20T10:38:22;77.73;;;45.17;;
3177;SDS011;38141;42.666;23.344;2023-12-20T10:40:49;85.13;;;44.73;;
3177;SDS011;38141;42.666;23.344;2023-12-20T10:43:22;87.63;;;48.83;;
3177;SDS011;38141;42.666;23.344;2023-12-20T10:45:51;87.57;;;47.63;;
3177;SDS011;38141;42.666;23.344;2023-12-20T10:48:18;97.03;;;46.00;;
3177;SDS011;38141;42.666;23.344;2023-12-20T10:50:47;96.73;;;46.40;;
3177;SDS011;38141;42.666;23.344;2023-12-20T10:53:15;86.00;;;45.60;;
3177;SDS011;38141;42.666;23.344;2023-12-20T10:55:42;89.00;;;46.80;;
3177;SDS011;38141;42.666;23.344;2023-12-20T10:58:11;78.33;;;44.90;;
3177;SDS011;38141;42.666;23.344;2023-12-20T11:00:41;94.23;;;48.90;;
3177;SDS011;38141;42.666;23.344;2023-12-20T11:03:10;96.53;;;46.60;;
3177;SDS011;38141;42.666;23.344;2023-12-20T11:05:42;87.13;;;47.00;;
3177;SDS011;38141;42.666;23.344;2023-12-20T11:08:16;91.80;;;50.00;;
3177;SDS011;38141;42.666;23.344;2023-12-20T11:10:51;94.23;;;50.20;;
3177;SDS011;38141;42.666;23.344;2023-12-20T11:13:26;95.60;;;49.67;;
3177;SDS011;38141;42.666;23.344;2023-12-20T11:15:59;95.87;;;48.83;;
3177;SDS011;38141;42.666;23.344;2023-12-20T11:18:29;99.37;;;47.60;;
3177;SDS011;38141;42.666;23.344;2023-12-20T11:21:00;92.63;;;47.27;;
3177;SDS011;38141;42.666;23.344;2023-12-20T11:23:32;88.73;;;48.50;;
3177;SDS011;38141;42.666;23.344;2023-12-20T11:25:59;100.67;;;50.73;;
3177;SDS011;38141;42.666;23.344;2023-12-20T11:28:29;95.30;;;48.90;;
3177;SDS011;38141;42.666;23.344;2023-12-20T11:30:56;96.17;;;46.90;;
3177;SDS011;38141;42.666;23.344;2023-12-20T11:33:29;90.70;;;47.80;;
3177;SDS011;38141;42.666;23.344;2023-12-20T11:36:03;93.13;;;46.70;;
3177;SDS011;38141;42.666;23.344;2023-12-20T11:38:39;97.97;;;47.60;;
3177;SDS011;38141;42.666;23.344;2023-12-20T11:41:25;105.90;;;48.60;;
3177;SDS011;38141;42.666;23.344;2023-12-20T11:43:53;96.80;;;47.63;;
3177;SDS011;38141;42.666;23.344;2023-12-20T11:46:20;104.13;;;48.13;;
3177;SDS011;38141;42.666;23.344;2023-12-20T11:48:49;100.87;;;47.10;;
3177;SDS011;38141;42.666;23.344;2023-12-20T11:51:17;101.10;;;49.40;;
3177;SDS011;38141;42.666;23.344;2023-12-20T11:53:44;93.33;;;46.63;;
3177;SDS011;38141;42.666;23.344;2023-12-20T11:56:11;101.27;;;46.20;;
3177;SDS011;38141;42.666;23.344;2023-12-20T11:58:38;98.20;;;48.40;;
3177;SDS011;38141;42.666;23.344;2023-12-20T12:01:06;101.47;;;48.00;;
3177;SDS011;38141;42.666;23.344;2023-12-20T12:03:33;94.77;;;45.77;;
3177;SDS011;38141;42.666;23.344;2023-12-20T12:06:03;95.13;;;47.80;;
3177;SDS011;38141;42.666;23.344;2023-12-20T12:08:30;95.00;;;47.20;;
3177;SDS011;38141;42.666;23.344;2023-12-20T12:10:57;111.33;;;50.97;;
3177;SDS011;38141;42.666;23.344;2023-12-20T12:13:25;115.47;;;53.83;;
3177;SDS011;38141;42.666;23.344;2023-12-20T12:15:53;103.30;;;47.70;;
3177;SDS011;38141;42.666;23.344;2023-12-20T12:18:20;101.43;;;51.60;;
3177;SDS011;38141;42.666;23.344;2023-12-20T12:20:47;99.43;;;48.67;;
3177;SDS011;38141;42.666;23.344;2023-12-20T12:23:22;95.70;;;46.93;;
3177;SDS011;38141;42.666;23.344;2023-12-20T12:25:50;98.30;;;44.80;;
3177;SDS011;38141;42.666;23.344;2023-12-20T12:28:20;106.73;;;50.07;;
3177;SDS011;38141;42.666;23.344;2023-12-20T12:30:55;105.40;;;48.30;;
3177;SDS011;38141;42.666;23.344;2023-12-20T12:33:24;102.13;;;47.03;;
3177;SDS011;38141;42.666;23.344;2023-12-20T12:35:51;94.93;;;47.27;;
3177;SDS011;38141;42.666;23.344;2023-12-20T12:38:21;86.90;;;43.70;;
3177;SDS011;38141;42.666;23.344;2023-12-20T12:40:48;96.80;;;46.37;;
3177;SDS011;38141;42.666;23.344;2023-12-20T12:43:18;92.80;;;44.50;;
3177;SDS011;38141;42.666;23.344;2023-12-20T12:45:45;87.20;;;43.87;;
3177;SDS011;38141;42.666;23.344;2023-12-20T12:48:12;97.07;;;46.10;;
3177;SDS011;38141;42.666;23.344;2023-12-20T12:50:40;90.83;;;44.37;;
3177;SDS011;38141;42.666;23.344;2023-12-20T12:53:07;89.77;;;44.97;;
3177;SDS011;38141;42.666;23.344;2023-12-20T12:55:36;94.27;;;45.70;;
3177;SDS011;38141;42.666;23.344;2023-12-20T12:58:03;99.30;;;51.80;;
3177;SDS011;38141;42.666;23.344;2023-12-20T13:00:31;101.10;;;47.60;;
3177;SDS011;38141;42.666;23.344;2023-12-20T13:02:58;100.20;;;47.50;;
3177;SDS011;38141;42.666;23.344;2023-12-20T13:05:26;112.23;;;49.43;;
3177;SDS011;38141;42.666;23.344;2023-12-20T13:07:56;115.13;;;50.53;;
3177;SDS011;38141;42.666;23.344;2023-12-20T13:10:23;106.53;;;49.80;;
3177;SDS011;38141;42.666;23.344;2023-12-20T13:12:52;106.53;;;49.17;;
3177;SDS011;38141;42.666;23.344;2023-12-20T13:15:19;110.30;;;49.53;;
3177;SDS011;38141;42.666;23.344;2023-12-20T13:17:46;109.43;;;49.93;;
3177;SDS011;38141;42.666;23.344;2023-12-20T13:20:13;113.70;;;50.77;;
3177;SDS011;38141;42.666;23.344;2023-12-20T13:22:40;114.83;;;51.63;;
3177;SDS011;38141;42.666;23.344;2023-12-20T13:25:07;123.87;;;53.10;;
3177;SDS011;38141;42.666;23.344;2023-12-20T13:27:35;110.80;;;50.37;;
3177;SDS011;38141;42.666;23.344;2023-12-20T13:30:04;108.27;;;48.70;;
3177;SDS011;38141;42.666;23.344;2023-12-20T13:32:32;108.33;;;50.13;;
3177;SDS011;38141;42.666;23.344;2023-12-20T13:34:59;112.17;;;52.67;;
3177;SDS011;38141;42.666;23.344;2023-12-20T13:37:26;106.47;;;49.17;;
3177;SDS011;38141;42.666;23.344;2023-12-20T13:39:54;113.10;;;50.17;;
3177;SDS011;38141;42.666;23.344;2023-12-20T13:42:21;117.03;;;50.27;;
3177;SDS011;38141;42.666;23.344;2023-12-20T13:44:48;108.83;;;48.83;;
3177;SDS011;38141;42.666;23.344;2023-12-20T13:47:16;120.53;;;53.70;;
3177;SDS011;38141;42.666;23.344;2023-12-20T13:49:44;108.93;;;48.83;;
3177;SDS011;38141;42.666;23.344;2023-12-20T13:52:11;101.77;;;50.20;;
3177;SDS011;38141;42.666;23.344;2023-12-20T13:54:38;110.90;;;49.30;;
3177;SDS011;38141;42.666;23.344;2023-12-20T13:57:05;104.47;;;45.57;;
3177;SDS011;38141;42.666;23.344;2023-12-20T13:59:32;106.50;;;49.10;;
3177;SDS011;38141;42.666;23.344;2023-12-20T14:02:00;96.63;;;45.40;;
3177;SDS011;38141;42.666;23.344;2023-12-20T14:04:30;116.37;;;48.83;;
3177;SDS011;38141;42.666;23.344;2023-12-20T14:06:57;101.30;;;46.17;;
3177;SDS011;38141;42.666;23.344;2023-12-20T14:09:24;98.67;;;44.27;;
3177;SDS011;38141;42.666;23.344;2023-12-20T14:11:51;107.53;;;46.73;;
3177;SDS011;38141;42.666;23.344;2023-12-20T14:14:18;104.03;;;45.73;;
3177;SDS011;38141;42.666;23.344;2023-12-20T14:16:45;100.80;;;47.30;;
3177;SDS011;38141;42.666;23.344;2023-12-20T14:19:12;110.53;;;46.77;;